createdAt,value
2019-03-11T00:00:28.820Z,4.40
2019-03-11T00:05:33.037Z,4.50
2019-03-11T00:10:37.292Z,4.50
2019-03-11T00:15:41.462Z,4.50
2019-03-11T00:20:45.642Z,4.40
2019-03-11T00:25:49.811Z,4.50
2019-03-11T00:30:53.979Z,4.40
2019-03-11T00:35:58.171Z,4.10
2019-03-11T00:41:02.391Z,4.20
2019-03-11T00:46:06.643Z,4.20
2019-03-11T00:51:10.787Z,4.10
2019-03-11T00:56:14.968Z,4.10
2019-03-11T01:01:19.604Z,4.10
2019-03-11T01:06:23.735Z,4.10
2019-03-11T01:11:27.912Z,4.10
2019-03-11T01:16:32.108Z,4.10
2019-03-11T01:21:36.276Z,4.10
2019-03-11T01:26:40.546Z,4.10
2019-03-11T01:31:44.795Z,4.10
2019-03-11T01:36:49.083Z,4.10
2019-03-11T01:41:53.272Z,4.20
2019-03-11T01:46:57.439Z,4.10
2019-03-11T01:52:01.632Z,4.20
2019-03-11T01:57:05.861Z,4.20
2019-03-11T02:02:10.038Z,4.10
2019-03-11T02:07:14.207Z,4.20
2019-03-11T02:12:18.398Z,4.10
2019-03-11T02:17:22.571Z,4.10
2019-03-11T02:22:26.760Z,4.20
2019-03-11T02:27:30.932Z,4.10
2019-03-11T02:32:35.302Z,4.00
2019-03-11T02:37:39.539Z,4.10
2019-03-11T02:42:43.731Z,4.00
2019-03-11T02:47:47.901Z,4.10
2019-03-11T02:52:52.110Z,4.10
2019-03-11T02:57:56.452Z,4.20
2019-03-11T03:03:31.684Z,4.20
2019-03-11T03:08:35.924Z,4.30
2019-03-11T03:13:40.085Z,4.30
2019-03-11T03:18:44.284Z,4.30
2019-03-11T03:23:48.478Z,4.30
2019-03-11T03:28:52.847Z,4.20
2019-03-11T03:33:57.052Z,4.20
2019-03-11T03:39:01.321Z,4.40
2019-03-11T03:44:05.526Z,4.50
2019-03-11T03:49:09.775Z,4.30
2019-03-11T03:54:13.951Z,3.90
2019-03-11T03:59:18.209Z,3.80
2019-03-11T04:04:22.492Z,3.50
2019-03-11T04:09:26.709Z,3.40
2019-03-11T04:14:30.902Z,3.40
2019-03-11T04:19:35.144Z,3.30
2019-03-11T04:24:39.495Z,3.60
2019-03-11T04:29:43.659Z,3.60
2019-03-11T04:34:47.856Z,3.60
2019-03-11T04:39:52.169Z,3.80
2019-03-11T04:44:56.357Z,3.80
2019-03-11T04:50:00.715Z,3.70
2019-03-11T04:55:05.687Z,3.80
2019-03-11T05:00:10.769Z,3.80
2019-03-11T05:05:15.044Z,3.80
2019-03-11T05:10:19.262Z,3.60
2019-03-11T05:15:23.455Z,3.60
2019-03-11T05:20:27.629Z,3.50
2019-03-11T05:25:31.811Z,3.60
2019-03-11T05:30:36.079Z,3.60
2019-03-11T05:35:40.268Z,3.50
2019-03-11T05:40:44.519Z,3.60
2019-03-11T05:45:48.742Z,3.60
2019-03-11T05:50:52.939Z,3.80
2019-03-11T05:55:57.162Z,3.90
2019-03-11T06:01:01.626Z,3.80
2019-03-11T06:06:05.834Z,3.90
2019-03-11T06:11:10.006Z,4.00
2019-03-11T06:16:14.170Z,3.90
2019-03-11T06:21:43.162Z,4.00
2019-03-11T06:26:47.484Z,4.00
2019-03-11T06:31:51.748Z,3.90
2019-03-11T06:36:55.996Z,4.10
2019-03-11T06:42:00.232Z,4.20
2019-03-11T06:47:04.406Z,4.40
2019-03-11T06:52:08.584Z,4.90
2019-03-11T06:57:12.963Z,5.50
2019-03-11T07:02:17.202Z,5.50
2019-03-11T07:07:21.375Z,5.80
2019-03-11T07:12:25.564Z,6.10
2019-03-11T07:17:29.750Z,6.20
2019-03-11T07:22:33.971Z,6.60
2019-03-11T07:27:38.116Z,6.70
2019-03-11T07:32:42.302Z,7.70
2019-03-11T07:37:46.480Z,8.80
2019-03-11T07:42:50.686Z,9.70
2019-03-11T07:47:54.852Z,10.60
2019-03-11T07:52:59.029Z,11.00
2019-03-11T07:58:03.226Z,10.50
2019-03-11T08:03:07.403Z,6.80
2019-03-11T08:08:11.711Z,6.80
2019-03-11T08:13:16.070Z,6.30
2019-03-11T08:18:20.293Z,7.40
2019-03-11T08:23:24.460Z,7.80
2019-03-11T08:28:28.653Z,7.20
2019-03-11T08:33:32.918Z,6.90
2019-03-11T08:38:37.281Z,7.30
2019-03-11T08:43:41.544Z,8.70
2019-03-11T08:48:45.741Z,11.10
2019-03-11T08:53:49.930Z,9.70
2019-03-11T08:58:54.109Z,9.30
2019-03-11T09:03:58.287Z,9.70
2019-03-11T09:09:02.761Z,8.00
2019-03-11T09:14:06.940Z,8.90
2019-03-11T09:19:11.140Z,10.10
2019-03-11T09:24:19.062Z,9.40
2019-03-11T09:29:21.368Z,7.90
2019-03-11T09:34:25.619Z,7.00
2019-03-11T09:39:29.796Z,6.50
2019-03-11T09:44:33.975Z,6.30
2019-03-11T09:49:38.173Z,6.60
2019-03-11T09:54:42.353Z,6.40
2019-03-11T09:59:46.543Z,6.70
2019-03-11T10:04:50.784Z,6.50
2019-03-11T10:09:54.955Z,6.40
2019-03-11T10:14:59.155Z,6.80
2019-03-11T10:20:03.398Z,7.30
2019-03-11T10:25:08.136Z,6.80
2019-03-11T10:30:14.928Z,6.90
2019-03-11T10:35:31.502Z,6.70
2019-03-11T10:40:25.246Z,7.00
2019-03-11T10:45:31.658Z,7.80
2019-03-11T10:50:35.467Z,7.30
2019-03-11T11:41:12.783Z,7.80
2019-03-11T11:46:16.962Z,8.50
2019-03-11T11:51:21.149Z,10.70
2019-03-11T11:56:25.411Z,10.70
2019-03-11T12:01:29.677Z,9.90
2019-03-11T12:06:33.944Z,10.00
2019-03-11T12:11:38.298Z,9.30
2019-03-11T12:16:42.509Z,8.40
2019-03-11T12:21:46.687Z,8.10
2019-03-11T12:26:50.871Z,7.60
2019-03-11T12:31:55.036Z,7.60
2019-03-11T12:36:59.313Z,7.50
2019-03-11T12:42:03.586Z,7.20
2019-03-11T12:47:07.941Z,7.00
2019-03-11T12:52:12.133Z,7.30
2019-03-11T12:57:16.343Z,7.20
2019-03-11T13:02:20.533Z,7.30
2019-03-11T13:07:24.771Z,6.90
2019-03-11T13:12:28.977Z,6.30
2019-03-11T13:17:33.149Z,6.20
2019-03-11T13:22:37.357Z,5.60
2019-03-11T13:27:41.559Z,5.30
2019-03-11T13:32:45.813Z,5.10
2019-03-11T13:37:50.189Z,5.20
2019-03-11T13:42:54.365Z,5.30
2019-03-11T13:47:59.072Z,5.20
2019-03-11T13:53:03.299Z,5.50
2019-03-11T13:58:07.554Z,5.60
2019-03-11T14:03:11.737Z,5.90
2019-03-11T14:08:15.954Z,6.00
2019-03-11T14:13:20.171Z,6.30
2019-03-11T14:18:24.415Z,6.30
2019-03-11T14:23:28.619Z,6.30
2019-03-11T14:28:32.797Z,6.30
2019-03-11T14:33:37.026Z,6.30
2019-03-11T14:38:41.308Z,6.20
2019-03-11T14:43:45.492Z,6.30
2019-03-11T14:48:49.774Z,6.30
2019-03-11T14:53:54.028Z,6.60
2019-03-11T14:58:58.200Z,6.70
2019-03-11T15:04:02.455Z,6.60
2019-03-11T15:09:07.610Z,6.70
2019-03-11T15:14:11.800Z,6.60
2019-03-11T15:19:16.010Z,5.90
2019-03-11T15:24:20.282Z,5.70
2019-03-11T15:29:24.476Z,6.10
2019-03-11T15:34:28.678Z,6.30
2019-03-11T15:39:32.905Z,6.40
2019-03-11T15:44:37.268Z,6.40
2019-03-11T15:49:41.495Z,6.60
2019-03-11T15:54:45.864Z,6.60
2019-03-11T15:59:50.124Z,6.50
2019-03-11T16:04:54.310Z,6.60
2019-03-11T16:09:58.594Z,6.50
2019-03-11T16:15:02.839Z,6.50
2019-03-11T16:20:09.051Z,6.50
2019-03-11T16:25:13.672Z,6.30
2019-03-11T16:30:19.339Z,6.20
2019-03-11T16:35:24.339Z,5.90
2019-03-11T16:40:28.708Z,5.70
2019-03-11T16:45:32.949Z,5.70
2019-03-11T16:50:37.139Z,5.90
2019-03-11T16:55:42.920Z,6.00
2019-03-11T17:00:47.432Z,6.00
2019-03-11T17:05:51.664Z,6.00
2019-03-11T17:10:57.217Z,5.90
2019-03-11T17:16:01.423Z,5.90
2019-03-11T17:21:05.841Z,5.90
2019-03-11T17:26:10.059Z,5.80
2019-03-11T17:31:14.253Z,5.80
2019-03-11T17:36:18.691Z,5.90
2019-03-11T17:41:22.940Z,5.90
2019-03-11T17:46:27.243Z,5.90
2019-03-11T17:51:31.395Z,5.80
2019-03-11T17:56:35.579Z,5.80
2019-03-11T18:01:39.849Z,5.90
2019-03-11T18:06:44.163Z,6.00
2019-03-11T18:11:48.336Z,6.10
2019-03-11T18:16:52.686Z,6.00
2019-03-11T18:21:57.337Z,6.00
2019-03-11T18:27:01.642Z,5.90
2019-03-11T18:32:06.160Z,5.70
2019-03-11T18:37:10.491Z,5.70
2019-03-11T18:42:24.953Z,5.80
2019-03-11T18:47:20.664Z,5.80
2019-03-11T18:52:24.993Z,5.80
2019-03-11T18:57:29.177Z,5.90
2019-03-11T19:02:33.418Z,5.80
2019-03-11T19:07:37.664Z,5.80
2019-03-11T19:12:41.947Z,5.60
2019-03-11T19:17:46.378Z,5.60
2019-03-11T19:22:50.779Z,5.70
2019-03-11T19:27:55.141Z,5.90
2019-03-11T19:32:59.382Z,5.80
2019-03-11T19:38:03.651Z,5.70
2019-03-11T19:43:08.303Z,5.80
2019-03-11T19:48:12.625Z,5.80
2019-03-11T19:53:16.884Z,5.90
2019-03-11T20:03:30.388Z,6.00
2019-03-11T20:08:30.750Z,5.80
2019-03-11T20:13:36.654Z,5.70
2019-03-11T20:18:40.868Z,5.80
2019-03-11T20:23:45.356Z,5.90
2019-03-11T20:28:49.672Z,5.60
2019-03-11T20:33:56.959Z,5.80
2019-03-11T20:39:01.285Z,5.80
2019-03-11T20:44:05.696Z,5.90
2019-03-11T20:49:09.921Z,5.90
2019-03-11T20:54:14.136Z,5.80
2019-03-11T20:59:18.365Z,5.90
2019-03-11T21:04:22.576Z,5.80
2019-03-11T21:09:26.932Z,5.80
2019-03-11T21:14:31.290Z,5.80
2019-03-11T21:19:35.653Z,5.90
2019-03-11T21:24:40.076Z,5.90
2019-03-11T21:29:44.371Z,5.90
2019-03-11T21:34:48.705Z,6.10
2019-03-11T21:39:53.152Z,6.20
2019-03-11T21:44:57.528Z,6.30
2019-03-11T21:50:01.828Z,6.20
2019-03-11T21:55:06.427Z,6.20
2019-03-11T22:00:13.699Z,6.30
2019-03-11T22:05:17.856Z,6.30
2019-03-11T22:10:22.121Z,6.40
2019-03-11T22:15:26.414Z,6.50
2019-03-11T22:20:30.650Z,6.20
2019-03-11T22:25:34.891Z,6.40
2019-03-11T22:30:39.153Z,6.50
2019-03-11T22:35:43.352Z,6.40
2019-03-11T22:40:47.557Z,6.30
2019-03-11T22:45:51.828Z,6.30
2019-03-11T22:50:56.004Z,6.00
2019-03-11T22:56:00.203Z,5.90
2019-03-11T23:01:05.299Z,6.10
2019-03-11T23:06:09.593Z,6.10
2019-03-11T23:11:13.828Z,5.90
2019-03-11T23:16:18.029Z,5.80
2019-03-11T23:21:22.361Z,5.80
2019-03-11T23:26:26.562Z,5.80
2019-03-11T23:31:30.827Z,5.80
2019-03-11T23:36:35.069Z,5.70
2019-03-11T23:41:39.258Z,6.00
2019-03-11T23:46:43.670Z,6.00
2019-03-11T23:51:47.842Z,6.10
2019-03-11T23:56:52.020Z,6.20
